sensor_id;sensor_type;location;lat;lon;timestamp;P1;durP1;ratioP1;P2;durP2;ratioP2
10031;SDS011;5056;44.272;19.892;2023-04-01T00:02:18;78.20;;;69.78;;
10031;SDS011;5056;44.272;19.892;2023-04-01T00:04:47;83.35;;;74.80;;
10031;SDS011;5056;44.272;19.892;2023-04-01T00:07:17;48.88;;;42.67;;
10031;SDS011;5056;44.272;19.892;2023-04-01T00:09:45;47.55;;;42.38;;
10031;SDS011;5056;44.272;19.892;2023-04-01T00:12:12;46.35;;;36.97;;
10031;SDS011;5056;44.272;19.892;2023-04-01T00:14:39;37.63;;;27.85;;
10031;SDS011;5056;44.272;19.892;2023-04-01T00:17:06;31.38;;;24.50;;
10031;SDS011;5056;44.272;19.892;2023-04-01T00:19:33;34.90;;;24.83;;
10031;SDS011;5056;44.272;19.892;2023-04-01T00:22:01;29.13;;;22.15;;
10031;SDS011;5056;44.272;19.892;2023-04-01T00:24:28;27.45;;;21.58;;
10031;SDS011;5056;44.272;19.892;2023-04-01T00:26:56;29.45;;;20.65;;
10031;SDS011;5056;44.272;19.892;2023-04-01T00:29:23;27.42;;;19.95;;
10031;SDS011;5056;44.272;19.892;2023-04-01T00:31:54;28.42;;;22.52;;
10031;SDS011;5056;44.272;19.892;2023-04-01T00:34:22;106.50;;;95.10;;
10031;SDS011;5056;44.272;19.892;2023-04-01T00:36:50;46.15;;;41.28;;
10031;SDS011;5056;44.272;19.892;2023-04-01T00:39:17;35.35;;;27.75;;
10031;SDS011;5056;44.272;19.892;2023-04-01T00:41:45;33.22;;;24.40;;
10031;SDS011;5056;44.272;19.892;2023-04-01T00:44:16;33.65;;;23.23;;
10031;SDS011;5056;44.272;19.892;2023-04-01T00:46:44;28.42;;;21.55;;
10031;SDS011;5056;44.272;19.892;2023-04-01T00:49:13;27.25;;;20.75;;
10031;SDS011;5056;44.272;19.892;2023-04-01T00:51:41;30.98;;;21.27;;
10031;SDS011;5056;44.272;19.892;2023-04-01T00:54:09;35.22;;;23.65;;
10031;SDS011;5056;44.272;19.892;2023-04-01T00:56:38;35.22;;;23.23;;
10031;SDS011;5056;44.272;19.892;2023-04-01T00:59:10;31.80;;;22.05;;
10031;SDS011;5056;44.272;19.892;2023-04-01T01:01:41;31.20;;;25.20;;
10031;SDS011;5056;44.272;19.892;2023-04-01T01:04:32;35.28;;;22.95;;
10031;SDS011;5056;44.272;19.892;2023-04-01T01:07:03;25.67;;;20.58;;
10031;SDS011;5056;44.272;19.892;2023-04-01T01:09:43;32.42;;;20.75;;
10031;SDS011;5056;44.272;19.892;2023-04-01T01:12:13;23.35;;;19.25;;
10031;SDS011;5056;44.272;19.892;2023-04-01T01:14:44;25.50;;;19.85;;
10031;SDS011;5056;44.272;19.892;2023-04-01T01:17:22;22.75;;;19.30;;
10031;SDS011;5056;44.272;19.892;2023-04-01T01:22:52;23.00;;;18.75;;
10031;SDS011;5056;44.272;19.892;2023-04-01T01:25:29;23.10;;;18.60;;
10031;SDS011;5056;44.272;19.892;2023-04-01T01:28:06;22.90;;;18.25;;
10031;SDS011;5056;44.272;19.892;2023-04-01T01:30:46;31.63;;;23.52;;
10031;SDS011;5056;44.272;19.892;2023-04-01T01:33:19;23.83;;;19.92;;
10031;SDS011;5056;44.272;19.892;2023-04-01T01:38:29;23.60;;;18.65;;
10031;SDS011;5056;44.272;19.892;2023-04-01T01:41:00;24.60;;;18.90;;
10031;SDS011;5056;44.272;19.892;2023-04-01T01:43:29;29.25;;;20.88;;
10031;SDS011;5056;44.272;19.892;2023-04-01T01:45:59;50.85;;;31.80;;
10031;SDS011;5056;44.272;19.892;2023-04-01T01:48:29;39.97;;;27.45;;
10031;SDS011;5056;44.272;19.892;2023-04-01T01:51:00;39.17;;;26.80;;
10031;SDS011;5056;44.272;19.892;2023-04-01T01:53:31;40.28;;;29.13;;
10031;SDS011;5056;44.272;19.892;2023-04-01T01:55:58;41.70;;;28.02;;
10031;SDS011;5056;44.272;19.892;2023-04-01T01:58:25;40.92;;;28.42;;
10031;SDS011;5056;44.272;19.892;2023-04-01T02:00:56;36.97;;;25.33;;
10031;SDS011;5056;44.272;19.892;2023-04-01T02:03:24;33.95;;;25.42;;
10031;SDS011;5056;44.272;19.892;2023-04-01T02:05:52;37.00;;;25.52;;
10031;SDS011;5056;44.272;19.892;2023-04-01T02:08:26;34.47;;;24.42;;
10031;SDS011;5056;44.272;19.892;2023-04-01T02:10:55;29.92;;;21.17;;
10031;SDS011;5056;44.272;19.892;2023-04-01T02:13:28;27.17;;;20.35;;
10031;SDS011;5056;44.272;19.892;2023-04-01T02:15:59;23.67;;;18.50;;
10031;SDS011;5056;44.272;19.892;2023-04-01T02:18:29;25.88;;;16.35;;
10031;SDS011;5056;44.272;19.892;2023-04-01T02:20:57;19.45;;;14.60;;
10031;SDS011;5056;44.272;19.892;2023-04-01T02:23:26;20.25;;;14.45;;
10031;SDS011;5056;44.272;19.892;2023-04-01T02:25:54;19.10;;;13.25;;
10031;SDS011;5056;44.272;19.892;2023-04-01T02:28:21;19.50;;;13.35;;
10031;SDS011;5056;44.272;19.892;2023-04-01T02:30:50;18.40;;;13.75;;
10031;SDS011;5056;44.272;19.892;2023-04-01T02:35:57;13.77;;;10.75;;
10031;SDS011;5056;44.272;19.892;2023-04-01T02:38:25;14.87;;;10.53;;
10031;SDS011;5056;44.272;19.892;2023-04-01T02:40:56;18.02;;;10.00;;
10031;SDS011;5056;44.272;19.892;2023-04-01T02:43:24;12.75;;;9.57;;
10031;SDS011;5056;44.272;19.892;2023-04-01T02:45:53;14.05;;;9.57;;
10031;SDS011;5056;44.272;19.892;2023-04-01T02:48:20;13.07;;;8.60;;
10031;SDS011;5056;44.272;19.892;2023-04-01T02:50:48;13.70;;;8.73;;
10031;SDS011;5056;44.272;19.892;2023-04-01T02:53:17;11.00;;;6.78;;
10031;SDS011;5056;44.272;19.892;2023-04-01T02:55:47;11.20;;;6.70;;
10031;SDS011;5056;44.272;19.892;2023-04-01T02:58:15;7.90;;;5.80;;
10031;SDS011;5056;44.272;19.892;2023-04-01T03:00:43;6.78;;;5.78;;
10031;SDS011;5056;44.272;19.892;2023-04-01T03:03:10;10.43;;;5.75;;
10031;SDS011;5056;44.272;19.892;2023-04-01T03:05:37;8.23;;;5.30;;
10031;SDS011;5056;44.272;19.892;2023-04-01T03:08:05;8.60;;;6.10;;
10031;SDS011;5056;44.272;19.892;2023-04-01T03:10:38;7.63;;;5.87;;
10031;SDS011;5056;44.272;19.892;2023-04-01T03:13:07;7.03;;;5.40;;
10031;SDS011;5056;44.272;19.892;2023-04-01T03:15:34;8.97;;;5.90;;
10031;SDS011;5056;44.272;19.892;2023-04-01T03:18:01;6.23;;;5.20;;
10031;SDS011;5056;44.272;19.892;2023-04-01T03:20:28;7.28;;;6.10;;
10031;SDS011;5056;44.272;19.892;2023-04-01T03:23:00;8.25;;;6.18;;
10031;SDS011;5056;44.272;19.892;2023-04-01T03:25:27;8.40;;;6.40;;
10031;SDS011;5056;44.272;19.892;2023-04-01T03:27:55;8.48;;;5.80;;
10031;SDS011;5056;44.272;19.892;2023-04-01T03:30:27;11.23;;;6.32;;
10031;SDS011;5056;44.272;19.892;2023-04-01T03:32:56;8.10;;;7.17;;
10031;SDS011;5056;44.272;19.892;2023-04-01T03:35:24;9.85;;;6.13;;
10031;SDS011;5056;44.272;19.892;2023-04-01T03:37:52;7.38;;;6.25;;
10031;SDS011;5056;44.272;19.892;2023-04-01T03:40:19;8.70;;;6.03;;
10031;SDS011;5056;44.272;19.892;2023-04-01T03:42:47;7.03;;;5.80;;
10031;SDS011;5056;44.272;19.892;2023-04-01T03:45:16;10.17;;;6.23;;
10031;SDS011;5056;44.272;19.892;2023-04-01T03:47:48;7.30;;;5.60;;
10031;SDS011;5056;44.272;19.892;2023-04-01T03:50:16;8.73;;;6.30;;
10031;SDS011;5056;44.272;19.892;2023-04-01T03:52:45;8.67;;;5.70;;
10031;SDS011;5056;44.272;19.892;2023-04-01T03:55:12;7.33;;;6.63;;
10031;SDS011;5056;44.272;19.892;2023-04-01T03:57:39;9.67;;;5.80;;
10031;SDS011;5056;44.272;19.892;2023-04-01T04:00:07;7.10;;;6.32;;
10031;SDS011;5056;44.272;19.892;2023-04-01T04:02:34;9.30;;;6.07;;
10031;SDS011;5056;44.272;19.892;2023-04-01T04:05:05;10.00;;;6.60;;
10031;SDS011;5056;44.272;19.892;2023-04-01T04:07:33;8.23;;;5.95;;
10031;SDS011;5056;44.272;19.892;2023-04-01T04:10:00;6.97;;;6.20;;
10031;SDS011;5056;44.272;19.892;2023-04-01T04:12:27;8.97;;;6.40;;
10031;SDS011;5056;44.272;19.892;2023-04-01T04:14:54;11.50;;;7.23;;
10031;SDS011;5056;44.272;19.892;2023-04-01T04:17:21;9.70;;;7.23;;
10031;SDS011;5056;44.272;19.892;2023-04-01T04:19:48;11.70;;;7.80;;
10031;SDS011;5056;44.272;19.892;2023-04-01T04:22:17;8.83;;;7.47;;
10031;SDS011;5056;44.272;19.892;2023-04-01T04:24:43;9.87;;;7.67;;
10031;SDS011;5056;44.272;19.892;2023-04-01T04:27:10;8.53;;;6.70;;
10031;SDS011;5056;44.272;19.892;2023-04-01T04:29:37;10.07;;;7.23;;
10031;SDS011;5056;44.272;19.892;2023-04-01T04:32:04;11.10;;;7.60;;
10031;SDS011;5056;44.272;19.892;2023-04-01T04:34:32;10.20;;;8.27;;
10031;SDS011;5056;44.272;19.892;2023-04-01T04:36:59;12.83;;;8.77;;
10031;SDS011;5056;44.272;19.892;2023-04-01T04:39:28;12.93;;;8.50;;
10031;SDS011;5056;44.272;19.892;2023-04-01T04:41:55;11.53;;;8.97;;
10031;SDS011;5056;44.272;19.892;2023-04-01T04:44:22;14.03;;;10.50;;
10031;SDS011;5056;44.272;19.892;2023-04-01T04:46:49;11.40;;;9.30;;
10031;SDS011;5056;44.272;19.892;2023-04-01T04:49:16;12.70;;;9.10;;
10031;SDS011;5056;44.272;19.892;2023-04-01T04:51:44;10.97;;;8.50;;
10031;SDS011;5056;44.272;19.892;2023-04-01T04:54:11;12.07;;;9.27;;
10031;SDS011;5056;44.272;19.892;2023-04-01T04:56:39;11.53;;;9.50;;
10031;SDS011;5056;44.272;19.892;2023-04-01T04:59:08;12.03;;;9.57;;
10031;SDS011;5056;44.272;19.892;2023-04-01T05:01:36;10.47;;;8.60;;
10031;SDS011;5056;44.272;19.892;2023-04-01T05:04:05;12.80;;;10.20;;
10031;SDS011;5056;44.272;19.892;2023-04-01T05:06:33;12.07;;;9.77;;
10031;SDS011;5056;44.272;19.892;2023-04-01T05:09:00;12.27;;;9.77;;
10031;SDS011;5056;44.272;19.892;2023-04-01T05:11:28;10.67;;;9.27;;
10031;SDS011;5056;44.272;19.892;2023-04-01T05:13:56;11.50;;;9.43;;
10031;SDS011;5056;44.272;19.892;2023-04-01T05:16:23;12.37;;;9.83;;
10031;SDS011;5056;44.272;19.892;2023-04-01T05:21:35;13.60;;;9.77;;
10031;SDS011;5056;44.272;19.892;2023-04-01T05:24:02;17.00;;;12.10;;
10031;SDS011;5056;44.272;19.892;2023-04-01T05:26:29;15.43;;;13.83;;
10031;SDS011;5056;44.272;19.892;2023-04-01T05:29:03;19.57;;;14.13;;
10031;SDS011;5056;44.272;19.892;2023-04-01T05:31:30;17.43;;;14.80;;
10031;SDS011;5056;44.272;19.892;2023-04-01T05:33:57;19.37;;;16.90;;
10031;SDS011;5056;44.272;19.892;2023-04-01T05:36:24;20.10;;;16.83;;
10031;SDS011;5056;44.272;19.892;2023-04-01T05:38:54;22.27;;;19.50;;
10031;SDS011;5056;44.272;19.892;2023-04-01T05:41:22;21.08;;;18.35;;
10031;SDS011;5056;44.272;19.892;2023-04-01T05:43:51;25.07;;;19.83;;
10031;SDS011;5056;44.272;19.892;2023-04-01T05:46:23;28.87;;;21.63;;
10031;SDS011;5056;44.272;19.892;2023-04-01T05:48:56;28.00;;;22.53;;
10031;SDS011;5056;44.272;19.892;2023-04-01T05:51:22;39.63;;;30.92;;
10031;SDS011;5056;44.272;19.892;2023-04-01T05:53:49;38.57;;;30.00;;
10031;SDS011;5056;44.272;19.892;2023-04-01T05:56:17;37.57;;;29.97;;
10031;SDS011;5056;44.272;19.892;2023-04-01T05:58:45;36.27;;;29.97;;
10031;SDS011;5056;44.272;19.892;2023-04-01T06:01:13;31.23;;;24.60;;
10031;SDS011;5056;44.272;19.892;2023-04-01T06:03:42;31.23;;;22.97;;
10031;SDS011;5056;44.272;19.892;2023-04-01T06:06:16;25.57;;;22.30;;
10031;SDS011;5056;44.272;19.892;2023-04-01T06:08:52;27.07;;;24.00;;
10031;SDS011;5056;44.272;19.892;2023-04-01T06:11:23;32.60;;;25.37;;
10031;SDS011;5056;44.272;19.892;2023-04-01T06:14:19;27.27;;;22.67;;
10031;SDS011;5056;44.272;19.892;2023-04-01T06:16:57;27.10;;;23.73;;
10031;SDS011;5056;44.272;19.892;2023-04-01T06:19:41;31.53;;;26.33;;
10031;SDS011;5056;44.272;19.892;2023-04-01T06:22:27;36.73;;;27.43;;
10031;SDS011;5056;44.272;19.892;2023-04-01T06:28:22;27.17;;;22.17;;
10031;SDS011;5056;44.272;19.892;2023-04-01T06:34:15;16.50;;;13.67;;
10031;SDS011;5056;44.272;19.892;2023-04-01T06:39:52;16.27;;;14.57;;
10031;SDS011;5056;44.272;19.892;2023-04-01T06:42:31;16.00;;;13.37;;
10031;SDS011;5056;44.272;19.892;2023-04-01T06:45:06;15.87;;;14.20;;
10031;SDS011;5056;44.272;19.892;2023-04-01T06:47:51;15.97;;;12.90;;
10031;SDS011;5056;44.272;19.892;2023-04-01T06:50:29;12.50;;;11.13;;
10031;SDS011;5056;44.272;19.892;2023-04-01T06:53:05;19.90;;;14.80;;
10031;SDS011;5056;44.272;19.892;2023-04-01T06:55:37;16.47;;;13.73;;
10031;SDS011;5056;44.272;19.892;2023-04-01T06:58:10;17.33;;;15.63;;
10031;SDS011;5056;44.272;19.892;2023-04-01T07:00:44;16.37;;;14.40;;
10031;SDS011;5056;44.272;19.892;2023-04-01T07:03:15;26.30;;;22.40;;
10031;SDS011;5056;44.272;19.892;2023-04-01T07:05:45;20.97;;;18.70;;
10031;SDS011;5056;44.272;19.892;2023-04-01T07:08:17;31.00;;;22.53;;
10031;SDS011;5056;44.272;19.892;2023-04-01T07:10:47;26.90;;;21.37;;
10031;SDS011;5056;44.272;19.892;2023-04-01T07:13:18;22.07;;;18.87;;
10031;SDS011;5056;44.272;19.892;2023-04-01T07:15:54;24.93;;;21.27;;
10031;SDS011;5056;44.272;19.892;2023-04-01T07:18:27;33.97;;;30.10;;
10031;SDS011;5056;44.272;19.892;2023-04-01T07:20:57;36.60;;;28.57;;
10031;SDS011;5056;44.272;19.892;2023-04-01T07:23:28;29.83;;;26.00;;
10031;SDS011;5056;44.272;19.892;2023-04-01T07:26:00;27.40;;;22.93;;
10031;SDS011;5056;44.272;19.892;2023-04-01T07:28:31;30.03;;;26.40;;
10031;SDS011;5056;44.272;19.892;2023-04-01T07:31:02;28.80;;;25.77;;
10031;SDS011;5056;44.272;19.892;2023-04-01T07:33:35;30.90;;;26.27;;
10031;SDS011;5056;44.272;19.892;2023-04-01T07:36:08;28.87;;;24.03;;
10031;SDS011;5056;44.272;19.892;2023-04-01T07:38:42;30.87;;;27.53;;
10031;SDS011;5056;44.272;19.892;2023-04-01T07:41:17;19.90;;;17.80;;
10031;SDS011;5056;44.272;19.892;2023-04-01T07:44:01;26.47;;;23.70;;
10031;SDS011;5056;44.272;19.892;2023-04-01T07:46:43;22.97;;;20.57;;
10031;SDS011;5056;44.272;19.892;2023-04-01T07:49:17;25.93;;;21.43;;
10031;SDS011;5056;44.272;19.892;2023-04-01T07:51:50;23.23;;;20.70;;
10031;SDS011;5056;44.272;19.892;2023-04-01T07:54:28;23.93;;;21.63;;
10031;SDS011;5056;44.272;19.892;2023-04-01T07:57:00;27.87;;;24.93;;
10031;SDS011;5056;44.272;19.892;2023-04-01T07:59:32;29.90;;;26.80;;
10031;SDS011;5056;44.272;19.892;2023-04-01T08:02:06;33.07;;;29.60;;
10031;SDS011;5056;44.272;19.892;2023-04-01T08:04:41;32.33;;;29.03;;
10031;SDS011;5056;44.272;19.892;2023-04-01T08:07:20;32.90;;;29.70;;
10031;SDS011;5056;44.272;19.892;2023-04-01T08:09:53;39.30;;;34.30;;
10031;SDS011;5056;44.272;19.892;2023-04-01T08:12:26;44.83;;;40.03;;
10031;SDS011;5056;44.272;19.892;2023-04-01T08:15:01;28.07;;;25.07;;
10031;SDS011;5056;44.272;19.892;2023-04-01T08:17:34;32.67;;;29.57;;
10031;SDS011;5056;44.272;19.892;2023-04-01T08:20:14;59.63;;;51.93;;
10031;SDS011;5056;44.272;19.892;2023-04-01T08:22:48;73.10;;;59.70;;
10031;SDS011;5056;44.272;19.892;2023-04-01T08:25:20;36.77;;;33.10;;
10031;SDS011;5056;44.272;19.892;2023-04-01T08:27:49;30.20;;;27.00;;
10031;SDS011;5056;44.272;19.892;2023-04-01T08:30:18;31.33;;;28.23;;
10031;SDS011;5056;44.272;19.892;2023-04-01T08:32:54;24.57;;;21.97;;
10031;SDS011;5056;44.272;19.892;2023-04-01T08:35:27;20.83;;;18.80;;
10031;SDS011;5056;44.272;19.892;2023-04-01T08:38:00;28.35;;;25.63;;
10031;SDS011;5056;44.272;19.892;2023-04-01T08:40:37;27.27;;;24.40;;
10031;SDS011;5056;44.272;19.892;2023-04-01T08:43:13;24.30;;;21.70;;
10031;SDS011;5056;44.272;19.892;2023-04-01T08:45:44;19.77;;;17.70;;
10031;SDS011;5056;44.272;19.892;2023-04-01T08:48:53;25.07;;;22.57;;
10031;SDS011;5056;44.272;19.892;2023-04-01T08:54:34;33.63;;;30.03;;
10031;SDS011;5056;44.272;19.892;2023-04-01T08:57:11;42.73;;;38.33;;
10031;SDS011;5056;44.272;19.892;2023-04-01T08:59:47;41.33;;;36.93;;
10031;SDS011;5056;44.272;19.892;2023-04-01T09:02:25;37.53;;;33.60;;
10031;SDS011;5056;44.272;19.892;2023-04-01T09:05:21;41.58;;;34.60;;
10031;SDS011;5056;44.272;19.892;2023-04-01T09:08:08;37.03;;;33.13;;
10031;SDS011;5056;44.272;19.892;2023-04-01T09:10:59;36.75;;;33.13;;
10031;SDS011;5056;44.272;19.892;2023-04-01T09:13:44;34.42;;;30.92;;
10031;SDS011;5056;44.272;19.892;2023-04-01T09:16:37;33.58;;;30.27;;
10031;SDS011;5056;44.272;19.892;2023-04-01T09:19:24;35.88;;;31.92;;
10031;SDS011;5056;44.272;19.892;2023-04-01T09:22:01;38.20;;;34.30;;
10031;SDS011;5056;44.272;19.892;2023-04-01T09:24:41;41.92;;;37.03;;
10031;SDS011;5056;44.272;19.892;2023-04-01T09:27:26;39.08;;;35.00;;
10031;SDS011;5056;44.272;19.892;2023-04-01T09:36:26;25.42;;;22.92;;
10031;SDS011;5056;44.272;19.892;2023-04-01T09:39:11;27.88;;;23.98;;
10031;SDS011;5056;44.272;19.892;2023-04-01T09:41:56;25.25;;;22.75;;
10031;SDS011;5056;44.272;19.892;2023-04-01T09:44:33;25.98;;;23.23;;
10031;SDS011;5056;44.272;19.892;2023-04-01T09:47:07;25.77;;;23.13;;
10031;SDS011;5056;44.272;19.892;2023-04-01T09:49:51;95.45;;;76.65;;
10031;SDS011;5056;44.272;19.892;2023-04-01T09:52:41;21.95;;;19.65;;
10031;SDS011;5056;44.272;19.892;2023-04-01T09:55:25;18.13;;;16.33;;
10031;SDS011;5056;44.272;19.892;2023-04-01T10:01:29;20.13;;;18.13;;
10031;SDS011;5056;44.272;19.892;2023-04-01T10:07:34;15.40;;;13.77;;
10031;SDS011;5056;44.272;19.892;2023-04-01T10:10:35;12.27;;;10.80;;
10031;SDS011;5056;44.272;19.892;2023-04-01T10:22:17;5.45;;;3.67;;
10031;SDS011;5056;44.272;19.892;2023-04-01T10:31:12;3.97;;;3.60;;
10031;SDS011;5056;44.272;19.892;2023-04-01T10:34:01;6.60;;;4.60;;
10031;SDS011;5056;44.272;19.892;2023-04-01T10:48:33;9.83;;;7.60;;
10031;SDS011;5056;44.272;19.892;2023-04-01T10:54:43;8.97;;;7.50;;
10031;SDS011;5056;44.272;19.892;2023-04-01T10:57:24;9.63;;;6.40;;
10031;SDS011;5056;44.272;19.892;2023-04-01T11:00:15;4.70;;;4.30;;
10031;SDS011;5056;44.272;19.892;2023-04-01T11:12:43;9.97;;;8.03;;
10031;SDS011;5056;44.272;19.892;2023-04-01T11:15:31;10.73;;;9.53;;
10031;SDS011;5056;44.272;19.892;2023-04-01T11:18:32;12.70;;;9.70;;
10031;SDS011;5056;44.272;19.892;2023-04-01T11:24:08;7.47;;;6.67;;
10031;SDS011;5056;44.272;19.892;2023-04-01T11:26:51;5.67;;;5.03;;
10031;SDS011;5056;44.272;19.892;2023-04-01T11:29:26;7.13;;;6.40;;
10031;SDS011;5056;44.272;19.892;2023-04-01T11:32:04;8.33;;;6.70;;
10031;SDS011;5056;44.272;19.892;2023-04-01T11:34:43;8.87;;;6.40;;
10031;SDS011;5056;44.272;19.892;2023-04-01T11:37:21;5.80;;;4.90;;
10031;SDS011;5056;44.272;19.892;2023-04-01T11:39:58;6.93;;;6.23;;
10031;SDS011;5056;44.272;19.892;2023-04-01T11:42:31;8.13;;;5.70;;
10031;SDS011;5056;44.272;19.892;2023-04-01T11:45:11;5.00;;;4.50;;
10031;SDS011;5056;44.272;19.892;2023-04-01T11:50:57;5.87;;;5.27;;
10031;SDS011;5056;44.272;19.892;2023-04-01T11:53:35;7.37;;;5.20;;
10031;SDS011;5056;44.272;19.892;2023-04-01T11:56:17;5.83;;;5.23;;
10031;SDS011;5056;44.272;19.892;2023-04-01T11:59:01;7.47;;;6.77;;
10031;SDS011;5056;44.272;19.892;2023-04-01T12:01:38;5.80;;;5.30;;
10031;SDS011;5056;44.272;19.892;2023-04-01T12:07:21;13.87;;;10.37;;
10031;SDS011;5056;44.272;19.892;2023-04-01T12:09:56;7.07;;;6.00;;
10031;SDS011;5056;44.272;19.892;2023-04-01T12:12:31;8.27;;;7.47;;
10031;SDS011;5056;44.272;19.892;2023-04-01T12:15:11;8.83;;;6.83;;
10031;SDS011;5056;44.272;19.892;2023-04-01T12:17:46;9.90;;;8.90;;
10031;SDS011;5056;44.272;19.892;2023-04-01T12:20:28;11.37;;;10.10;;
10031;SDS011;5056;44.272;19.892;2023-04-01T12:23:04;9.37;;;8.07;;
10031;SDS011;5056;44.272;19.892;2023-04-01T12:25:52;7.67;;;6.30;;
10031;SDS011;5056;44.272;19.892;2023-04-01T12:28:36;11.23;;;8.67;;
10031;SDS011;5056;44.272;19.892;2023-04-01T12:31:15;7.57;;;6.80;;
10031;SDS011;5056;44.272;19.892;2023-04-01T12:33:54;14.43;;;12.33;;
10031;SDS011;5056;44.272;19.892;2023-04-01T12:36:40;18.30;;;16.40;;
10031;SDS011;5056;44.272;19.892;2023-04-01T12:39:36;23.77;;;21.57;;
10031;SDS011;5056;44.272;19.892;2023-04-01T12:42:17;22.17;;;20.27;;
10031;SDS011;5056;44.272;19.892;2023-04-01T12:44:59;12.30;;;11.30;;
10031;SDS011;5056;44.272;19.892;2023-04-01T12:50:42;10.27;;;9.27;;
10031;SDS011;5056;44.272;19.892;2023-04-01T12:56:06;11.60;;;10.40;;
10031;SDS011;5056;44.272;19.892;2023-04-01T12:58:45;11.00;;;7.93;;
10031;SDS011;5056;44.272;19.892;2023-04-01T13:01:36;11.97;;;10.77;;
10031;SDS011;5056;44.272;19.892;2023-04-01T13:10:24;7.53;;;6.93;;
10031;SDS011;5056;44.272;19.892;2023-04-01T13:13:00;17.17;;;15.77;;
10031;SDS011;5056;44.272;19.892;2023-04-01T13:15:37;15.87;;;14.60;;
10031;SDS011;5056;44.272;19.892;2023-04-01T13:18:11;12.20;;;11.20;;
10031;SDS011;5056;44.272;19.892;2023-04-01T13:20:47;11.60;;;9.13;;
10031;SDS011;5056;44.272;19.892;2023-04-01T13:23:24;7.60;;;6.57;;
10031;SDS011;5056;44.272;19.892;2023-04-01T13:26:03;7.60;;;6.83;;
10031;SDS011;5056;44.272;19.892;2023-04-01T13:28:35;9.20;;;7.03;;
10031;SDS011;5056;44.272;19.892;2023-04-01T13:31:06;8.40;;;6.93;;
10031;SDS011;5056;44.272;19.892;2023-04-01T13:33:44;8.67;;;7.40;;
10031;SDS011;5056;44.272;19.892;2023-04-01T13:36:17;10.00;;;8.47;;
10031;SDS011;5056;44.272;19.892;2023-04-01T13:39:05;10.07;;;7.20;;
10031;SDS011;5056;44.272;19.892;2023-04-01T13:41:58;14.90;;;9.70;;
10031;SDS011;5056;44.272;19.892;2023-04-01T13:44:42;8.47;;;7.13;;
10031;SDS011;5056;44.272;19.892;2023-04-01T13:50:20;17.80;;;16.20;;
10031;SDS011;5056;44.272;19.892;2023-04-01T13:53:02;8.50;;;7.70;;
10031;SDS011;5056;44.272;19.892;2023-04-01T13:55:49;11.47;;;10.27;;
10031;SDS011;5056;44.272;19.892;2023-04-01T13:58:30;16.17;;;13.40;;
10031;SDS011;5056;44.272;19.892;2023-04-01T14:01:13;10.03;;;9.03;;
10031;SDS011;5056;44.272;19.892;2023-04-01T14:03:57;10.07;;;9.07;;
10031;SDS011;5056;44.272;19.892;2023-04-01T14:06:55;11.97;;;10.20;;
10031;SDS011;5056;44.272;19.892;2023-04-01T14:09:45;9.53;;;7.60;;
10031;SDS011;5056;44.272;19.892;2023-04-01T14:12:36;10.53;;;8.40;;
10031;SDS011;5056;44.272;19.892;2023-04-01T14:18:15;7.43;;;5.90;;
10031;SDS011;5056;44.272;19.892;2023-04-01T14:20:49;8.18;;;6.78;;
10031;SDS011;5056;44.272;19.892;2023-04-01T14:29:21;10.63;;;9.53;;
10031;SDS011;5056;44.272;19.892;2023-04-01T14:32:08;14.10;;;12.50;;
10031;SDS011;5056;44.272;19.892;2023-04-01T14:40:26;9.40;;;7.83;;
10031;SDS011;5056;44.272;19.892;2023-04-01T14:45:49;17.53;;;15.93;;
10031;SDS011;5056;44.272;19.892;2023-04-01T14:48:50;8.40;;;7.50;;
10031;SDS011;5056;44.272;19.892;2023-04-01T14:51:21;10.03;;;8.97;;
10031;SDS011;5056;44.272;19.892;2023-04-01T14:53:58;8.47;;;7.67;;
10031;SDS011;5056;44.272;19.892;2023-04-01T14:56:47;6.85;;;6.15;;
10031;SDS011;5056;44.272;19.892;2023-04-01T14:59:25;7.30;;;5.90;;
10031;SDS011;5056;44.272;19.892;2023-04-01T15:02:01;6.67;;;6.00;;
10031;SDS011;5056;44.272;19.892;2023-04-01T15:04:41;7.25;;;6.50;;
10031;SDS011;5056;44.272;19.892;2023-04-01T15:13:35;10.68;;;9.68;;
10031;SDS011;5056;44.272;19.892;2023-04-01T15:16:11;14.63;;;12.93;;
10031;SDS011;5056;44.272;19.892;2023-04-01T15:18:44;11.85;;;10.65;;
10031;SDS011;5056;44.272;19.892;2023-04-01T15:21:27;7.72;;;7.00;;
10031;SDS011;5056;44.272;19.892;2023-04-01T15:24:06;4.93;;;4.60;;
10031;SDS011;5056;44.272;19.892;2023-04-01T15:26:55;4.80;;;4.40;;
10031;SDS011;5056;44.272;19.892;2023-04-01T15:32:31;4.95;;;4.53;;
10031;SDS011;5056;44.272;19.892;2023-04-01T15:35:10;4.32;;;4.00;;
10031;SDS011;5056;44.272;19.892;2023-04-01T15:37:46;3.80;;;3.50;;
10031;SDS011;5056;44.272;19.892;2023-04-01T15:40:20;6.03;;;5.45;;
10031;SDS011;5056;44.272;19.892;2023-04-01T15:43:06;4.27;;;3.97;;
10031;SDS011;5056;44.272;19.892;2023-04-01T15:45:41;5.32;;;4.82;;
10031;SDS011;5056;44.272;19.892;2023-04-01T15:48:18;6.63;;;6.03;;
10031;SDS011;5056;44.272;19.892;2023-04-01T15:50:55;6.37;;;5.73;;
10031;SDS011;5056;44.272;19.892;2023-04-01T15:56:47;6.40;;;5.80;;
10031;SDS011;5056;44.272;19.892;2023-04-01T16:02:21;5.13;;;4.70;;
10031;SDS011;5056;44.272;19.892;2023-04-01T16:04:54;4.73;;;4.33;;
10031;SDS011;5056;44.272;19.892;2023-04-01T16:10:16;6.23;;;5.63;;
10031;SDS011;5056;44.272;19.892;2023-04-01T16:12:52;5.27;;;4.83;;
10031;SDS011;5056;44.272;19.892;2023-04-01T16:15:26;5.20;;;4.70;;
10031;SDS011;5056;44.272;19.892;2023-04-01T16:18:00;5.97;;;5.37;;
10031;SDS011;5056;44.272;19.892;2023-04-01T16:20:41;8.20;;;6.23;;
10031;SDS011;5056;44.272;19.892;2023-04-01T16:23:12;6.57;;;5.70;;
10031;SDS011;5056;44.272;19.892;2023-04-01T16:25:44;6.60;;;5.90;;
10031;SDS011;5056;44.272;19.892;2023-04-01T16:28:21;11.17;;;9.90;;
10031;SDS011;5056;44.272;19.892;2023-04-01T16:30:55;14.07;;;12.73;;
10031;SDS011;5056;44.272;19.892;2023-04-01T16:33:27;15.60;;;13.67;;
10031;SDS011;5056;44.272;19.892;2023-04-01T16:36:05;18.70;;;16.90;;
10031;SDS011;5056;44.272;19.892;2023-04-01T16:38:36;19.87;;;17.87;;
10031;SDS011;5056;44.272;19.892;2023-04-01T16:41:10;20.70;;;18.60;;
10031;SDS011;5056;44.272;19.892;2023-04-01T16:43:40;16.30;;;14.60;;
10031;SDS011;5056;44.272;19.892;2023-04-01T16:49:04;12.27;;;10.53;;
10031;SDS011;5056;44.272;19.892;2023-04-01T16:51:52;11.23;;;9.87;;
10031;SDS011;5056;44.272;19.892;2023-04-01T16:54:27;8.93;;;8.07;;
10031;SDS011;5056;44.272;19.892;2023-04-01T16:57:03;10.47;;;8.40;;
10031;SDS011;5056;44.272;19.892;2023-04-01T16:59:40;8.50;;;7.70;;
10031;SDS011;5056;44.272;19.892;2023-04-01T17:02:14;9.27;;;8.30;;
10031;SDS011;5056;44.272;19.892;2023-04-01T17:04:47;9.47;;;8.47;;
10031;SDS011;5056;44.272;19.892;2023-04-01T17:07:21;11.63;;;8.07;;
10031;SDS011;5056;44.272;19.892;2023-04-01T17:10:00;11.07;;;9.37;;
10031;SDS011;5056;44.272;19.892;2023-04-01T17:12:33;15.87;;;11.67;;
10031;SDS011;5056;44.272;19.892;2023-04-01T17:15:08;16.43;;;13.43;;
10031;SDS011;5056;44.272;19.892;2023-04-01T17:17:43;19.27;;;15.23;;
10031;SDS011;5056;44.272;19.892;2023-04-01T17:20:17;21.43;;;18.20;;
10031;SDS011;5056;44.272;19.892;2023-04-01T17:22:52;22.20;;;16.77;;
10031;SDS011;5056;44.272;19.892;2023-04-01T17:28:19;24.77;;;21.37;;
10031;SDS011;5056;44.272;19.892;2023-04-01T17:31:10;25.10;;;19.93;;
10031;SDS011;5056;44.272;19.892;2023-04-01T17:36:38;20.97;;;17.23;;
10031;SDS011;5056;44.272;19.892;2023-04-01T17:39:17;20.07;;;16.13;;
10031;SDS011;5056;44.272;19.892;2023-04-01T17:41:54;20.40;;;15.83;;